SLLP/LPB METAR and TAF weather

Enter ICAO airport designator
Station Type Date Time Source
SLLP METAR 2019/12/06 14:00 UTC NOAA

SLLP 061400Z 10004KT 050V140 9999 FEW015 SCT030 BKN070 12/04 Q1038


Station Type Date Time Source
SLLP Decoded METAR 2019/12/06 14:00 UTC NOAA

La Paz / Alto, Bolivia (SLLP) 16-31S 068-11W 4038M
Dec 06, 2019 - 09:00 AM EST / 2019.12.06 1400 UTC
Wind: from the E (100 degrees) at 5 MPH (4 KT) (direction variable):0
Visibility: greater than 7 mile(s):0
Sky conditions: mostly cloudy
Temperature: 53 F (12 C)
Dew Point: 39 F (4 C)
Relative Humidity: 57%
Pressure (altimeter): 30.65 in. Hg (1038 hPa)
ob: SLLP 061400Z 10004KT 050V140 9999 FEW015 SCT030 BKN070 12/04 Q1038
cycle: 14

Station Type Date Time Source
SLLP TAF 2019/12/06 12:55 UTC NOAA

TAF SLLP 061055Z 0612/0712 13004KT 9999 FEW015 FEW017CB BKN070 TX14/0620Z TN04/0710Z
TEMPO 0617/0622 05010G20KT 5000 TSRA
BECMG 0701 /0703 11006KT 3000E VCFG FEW002 SCT010 BKN070
TEMPO 0705/0710 RA

Example: see airport list